sensor_id;sensor_type;location;lat;lon;timestamp;temperature;humidity
75296;DHT22;64623;44.738;37.804;2023-10-08T00:00:12;2.43;118.99
75296;DHT22;64623;44.738;37.804;2023-10-08T00:01:34;2.41;118.99
75296;DHT22;64623;44.738;37.804;2023-10-08T00:02:36;2.43;118.99
75296;DHT22;64623;44.738;37.804;2023-10-08T00:03:39;2.40;118.99
75296;DHT22;64623;44.738;37.804;2023-10-08T00:04:43;2.40;118.99
75296;DHT22;64623;44.738;37.804;2023-10-08T00:05:47;2.39;118.99
75296;DHT22;64623;44.738;37.804;2023-10-08T00:06:52;2.39;118.99
75296;DHT22;64623;44.738;37.804;2023-10-08T00:07:55;2.42;118.99
75296;DHT22;64623;44.738;37.804;2023-10-08T00:08:58;2.40;118.99
75296;DHT22;64623;44.738;37.804;2023-10-08T00:10:09;2.40;118.99
75296;DHT22;64623;44.738;37.804;2023-10-08T00:11:11;2.40;118.99
75296;DHT22;64623;44.738;37.804;2023-10-08T00:12:14;2.39;118.99
75296;DHT22;64623;44.738;37.804;2023-10-08T00:13:19;2.39;118.99
75296;DHT22;64623;44.738;37.804;2023-10-08T00:14:21;2.38;118.99
75296;DHT22;64623;44.738;37.804;2023-10-08T00:15:24;2.41;118.99
75296;DHT22;64623;44.738;37.804;2023-10-08T00:16:28;2.41;118.99
75296;DHT22;64623;44.738;37.804;2023-10-08T00:17:31;2.40;118.99
75296;DHT22;64623;44.738;37.804;2023-10-08T00:18:34;2.40;118.99
75296;DHT22;64623;44.738;37.804;2023-10-08T00:19:37;2.41;118.99
75296;DHT22;64623;44.738;37.804;2023-10-08T00:20:41;2.40;118.99
75296;DHT22;64623;44.738;37.804;2023-10-08T00:21:50;2.39;118.99
75296;DHT22;64623;44.738;37.804;2023-10-08T00:22:55;2.40;118.99
75296;DHT22;64623;44.738;37.804;2023-10-08T00:23:59;2.40;118.99
75296;DHT22;64623;44.738;37.804;2023-10-08T00:25:02;2.41;118.99
75296;DHT22;64623;44.738;37.804;2023-10-08T00:26:10;2.42;118.99
75296;DHT22;64623;44.738;37.804;2023-10-08T00:27:13;2.41;118.99
75296;DHT22;64623;44.738;37.804;2023-10-08T00:28:21;2.42;118.99
75296;DHT22;64623;44.738;37.804;2023-10-08T00:29:24;2.43;118.99
75296;DHT22;64623;44.738;37.804;2023-10-08T00:30:27;2.43;118.99
75296;DHT22;64623;44.738;37.804;2023-10-08T00:31:34;2.43;118.99
75296;DHT22;64623;44.738;37.804;2023-10-08T00:32:41;2.43;118.99
75296;DHT22;64623;44.738;37.804;2023-10-08T00:33:43;2.44;118.99
75296;DHT22;64623;44.738;37.804;2023-10-08T00:34:46;2.46;118.99
75296;DHT22;64623;44.738;37.804;2023-10-08T00:35:49;2.45;118.99
75296;DHT22;64623;44.738;37.804;2023-10-08T00:36:53;2.45;118.99
75296;DHT22;64623;44.738;37.804;2023-10-08T00:37:56;2.44;118.99
75296;DHT22;64623;44.738;37.804;2023-10-08T00:39:05;2.43;118.99
75296;DHT22;64623;44.738;37.804;2023-10-08T00:40:16;2.45;118.99
75296;DHT22;64623;44.738;37.804;2023-10-08T00:41:24;2.43;118.99
75296;DHT22;64623;44.738;37.804;2023-10-08T00:42:31;2.44;118.99
75296;DHT22;64623;44.738;37.804;2023-10-08T00:43:34;2.45;118.99
75296;DHT22;64623;44.738;37.804;2023-10-08T00:44:38;2.46;118.99
75296;DHT22;64623;44.738;37.804;2023-10-08T00:45:50;2.49;118.99
75296;DHT22;64623;44.738;37.804;2023-10-08T00:46:53;2.47;118.99
75296;DHT22;64623;44.738;37.804;2023-10-08T00:47:58;2.46;118.99
75296;DHT22;64623;44.738;37.804;2023-10-08T00:49:02;2.46;118.99
75296;DHT22;64623;44.738;37.804;2023-10-08T00:50:24;2.46;118.99
75296;DHT22;64623;44.738;37.804;2023-10-08T00:51:33;2.45;118.99
75296;DHT22;64623;44.738;37.804;2023-10-08T00:52:42;2.46;118.99
75296;DHT22;64623;44.738;37.804;2023-10-08T00:54:01;2.45;118.99
75296;DHT22;64623;44.738;37.804;2023-10-08T00:55:11;2.47;118.99
75296;DHT22;64623;44.738;37.804;2023-10-08T00:56:28;2.47;118.99
75296;DHT22;64623;44.738;37.804;2023-10-08T00:57:51;2.50;118.99
75296;DHT22;64623;44.738;37.804;2023-10-08T00:59:00;2.50;118.99
75296;DHT22;64623;44.738;37.804;2023-10-08T01:00:04;2.47;118.99
75296;DHT22;64623;44.738;37.804;2023-10-08T01:01:25;2.45;118.99
75296;DHT22;64623;44.738;37.804;2023-10-08T01:02:30;2.44;118.99
75296;DHT22;64623;44.738;37.804;2023-10-08T01:03:47;2.45;118.99
75296;DHT22;64623;44.738;37.804;2023-10-08T01:04:53;2.47;118.99
75296;DHT22;64623;44.738;37.804;2023-10-08T01:05:56;2.46;118.99
75296;DHT22;64623;44.738;37.804;2023-10-08T01:07:01;2.44;118.99
75296;DHT22;64623;44.738;37.804;2023-10-08T01:08:14;2.44;118.99
75296;DHT22;64623;44.738;37.804;2023-10-08T01:09:25;2.43;118.99
75296;DHT22;64623;44.738;37.804;2023-10-08T01:10:38;2.45;118.99
75296;DHT22;64623;44.738;37.804;2023-10-08T01:11:43;2.44;118.99
75296;DHT22;64623;44.738;37.804;2023-10-08T01:12:48;2.43;118.99
75296;DHT22;64623;44.738;37.804;2023-10-08T01:13:57;2.45;118.99
75296;DHT22;64623;44.738;37.804;2023-10-08T01:15:01;2.44;118.99
75296;DHT22;64623;44.738;37.804;2023-10-08T01:16:16;2.43;118.99
75296;DHT22;64623;44.738;37.804;2023-10-08T01:17:22;2.43;118.99
75296;DHT22;64623;44.738;37.804;2023-10-08T01:18:29;2.44;118.99
75296;DHT22;64623;44.738;37.804;2023-10-08T01:19:35;2.46;118.99
75296;DHT22;64623;44.738;37.804;2023-10-08T01:20:42;2.45;118.99
75296;DHT22;64623;44.738;37.804;2023-10-08T01:21:51;2.44;118.99
75296;DHT22;64623;44.738;37.804;2023-10-08T01:22:54;2.45;118.99
75296;DHT22;64623;44.738;37.804;2023-10-08T01:24:02;2.44;118.99
75296;DHT22;64623;44.738;37.804;2023-10-08T01:25:08;2.44;118.99
75296;DHT22;64623;44.738;37.804;2023-10-08T01:26:12;2.44;118.99
75296;DHT22;64623;44.738;37.804;2023-10-08T01:27:18;2.44;118.99
75296;DHT22;64623;44.738;37.804;2023-10-08T01:28:24;2.44;118.99
75296;DHT22;64623;44.738;37.804;2023-10-08T01:29:32;2.45;118.99
75296;DHT22;64623;44.738;37.804;2023-10-08T01:30:35;2.45;118.99
75296;DHT22;64623;44.738;37.804;2023-10-08T01:31:44;2.44;118.99
75296;DHT22;64623;44.738;37.804;2023-10-08T01:32:46;2.44;118.99
75296;DHT22;64623;44.738;37.804;2023-10-08T01:33:50;2.44;118.99
75296;DHT22;64623;44.738;37.804;2023-10-08T01:34:59;2.43;118.99
75296;DHT22;64623;44.738;37.804;2023-10-08T01:36:03;2.43;118.99
75296;DHT22;64623;44.738;37.804;2023-10-08T01:37:06;2.44;118.99
75296;DHT22;64623;44.738;37.804;2023-10-08T01:38:15;2.42;118.99
75296;DHT22;64623;44.738;37.804;2023-10-08T01:39:26;2.42;118.99
75296;DHT22;64623;44.738;37.804;2023-10-08T01:40:29;2.45;118.99
75296;DHT22;64623;44.738;37.804;2023-10-08T01:41:33;2.45;118.99
75296;DHT22;64623;44.738;37.804;2023-10-08T01:42:36;2.45;118.99
75296;DHT22;64623;44.738;37.804;2023-10-08T01:43:42;2.46;118.99
75296;DHT22;64623;44.738;37.804;2023-10-08T01:44:45;2.47;118.99
75296;DHT22;64623;44.738;37.804;2023-10-08T01:45:49;2.46;118.99
75296;DHT22;64623;44.738;37.804;2023-10-08T01:46:54;2.45;118.99
75296;DHT22;64623;44.738;37.804;2023-10-08T01:48:00;2.47;118.99
75296;DHT22;64623;44.738;37.804;2023-10-08T01:49:04;2.45;118.99
75296;DHT22;64623;44.738;37.804;2023-10-08T01:50:11;2.45;118.99
75296;DHT22;64623;44.738;37.804;2023-10-08T01:51:30;2.44;118.99
75296;DHT22;64623;44.738;37.804;2023-10-08T01:52:40;2.44;118.99
75296;DHT22;64623;44.738;37.804;2023-10-08T01:53:43;2.44;118.99
75296;DHT22;64623;44.738;37.804;2023-10-08T01:54:47;2.43;118.99
75296;DHT22;64623;44.738;37.804;2023-10-08T01:55:50;2.41;118.99
75296;DHT22;64623;44.738;37.804;2023-10-08T01:56:54;2.40;118.99
75296;DHT22;64623;44.738;37.804;2023-10-08T01:57:57;2.41;118.99
75296;DHT22;64623;44.738;37.804;2023-10-08T01:59:00;2.41;118.99
75296;DHT22;64623;44.738;37.804;2023-10-08T02:00:05;2.43;118.99
75296;DHT22;64623;44.738;37.804;2023-10-08T02:01:13;2.41;118.99
75296;DHT22;64623;44.738;37.804;2023-10-08T02:02:16;2.42;118.99
75296;DHT22;64623;44.738;37.804;2023-10-08T02:03:19;2.42;118.99
75296;DHT22;64623;44.738;37.804;2023-10-08T02:04:25;2.41;118.99
75296;DHT22;64623;44.738;37.804;2023-10-08T02:05:28;2.40;118.99
75296;DHT22;64623;44.738;37.804;2023-10-08T02:06:34;2.40;118.99
75296;DHT22;64623;44.738;37.804;2023-10-08T02:07:36;2.40;118.99
75296;DHT22;64623;44.738;37.804;2023-10-08T02:08:39;2.37;118.99
75296;DHT22;64623;44.738;37.804;2023-10-08T02:09:42;2.38;118.99
75296;DHT22;64623;44.738;37.804;2023-10-08T02:10:45;2.39;118.99
75296;DHT22;64623;44.738;37.804;2023-10-08T02:11:50;2.39;118.99
75296;DHT22;64623;44.738;37.804;2023-10-08T02:12:54;2.38;118.99
75296;DHT22;64623;44.738;37.804;2023-10-08T02:13:58;2.38;118.99
75296;DHT22;64623;44.738;37.804;2023-10-08T02:15:00;2.37;118.99
75296;DHT22;64623;44.738;37.804;2023-10-08T02:16:05;2.36;118.99
75296;DHT22;64623;44.738;37.804;2023-10-08T02:17:09;2.40;118.99
75296;DHT22;64623;44.738;37.804;2023-10-08T02:18:12;2.40;118.99
75296;DHT22;64623;44.738;37.804;2023-10-08T02:19:16;2.38;118.99
75296;DHT22;64623;44.738;37.804;2023-10-08T02:20:30;2.38;118.99
75296;DHT22;64623;44.738;37.804;2023-10-08T02:21:33;2.37;118.99
75296;DHT22;64623;44.738;37.804;2023-10-08T02:22:36;2.36;118.99
75296;DHT22;64623;44.738;37.804;2023-10-08T02:23:39;2.36;118.99
75296;DHT22;64623;44.738;37.804;2023-10-08T02:24:42;2.37;118.99
75296;DHT22;64623;44.738;37.804;2023-10-08T02:25:45;2.37;118.99
75296;DHT22;64623;44.738;37.804;2023-10-08T02:26:48;2.37;118.99
75296;DHT22;64623;44.738;37.804;2023-10-08T02:27:51;2.38;118.99
75296;DHT22;64623;44.738;37.804;2023-10-08T02:28:53;2.37;118.99
75296;DHT22;64623;44.738;37.804;2023-10-08T02:29:56;2.37;118.99
75296;DHT22;64623;44.738;37.804;2023-10-08T02:30:59;2.38;118.99
75296;DHT22;64623;44.738;37.804;2023-10-08T02:32:02;2.38;118.99
75296;DHT22;64623;44.738;37.804;2023-10-08T02:33:08;2.37;118.99
75296;DHT22;64623;44.738;37.804;2023-10-08T02:34:16;2.36;118.99
75296;DHT22;64623;44.738;37.804;2023-10-08T02:35:22;2.35;118.99
75296;DHT22;64623;44.738;37.804;2023-10-08T02:36:25;2.36;118.99
75296;DHT22;64623;44.738;37.804;2023-10-08T02:37:27;2.37;118.99
75296;DHT22;64623;44.738;37.804;2023-10-08T02:38:30;2.38;118.99
75296;DHT22;64623;44.738;37.804;2023-10-08T02:39:40;2.38;118.99
75296;DHT22;64623;44.738;37.804;2023-10-08T02:40:44;2.35;118.99
75296;DHT22;64623;44.738;37.804;2023-10-08T02:41:52;2.32;118.99
75296;DHT22;64623;44.738;37.804;2023-10-08T02:42:57;2.32;118.99
75296;DHT22;64623;44.738;37.804;2023-10-08T02:44:03;2.31;118.99
75296;DHT22;64623;44.738;37.804;2023-10-08T02:45:08;2.31;118.99
75296;DHT22;64623;44.738;37.804;2023-10-08T02:46:16;2.28;118.99
75296;DHT22;64623;44.738;37.804;2023-10-08T02:47:20;2.29;118.99
75296;DHT22;64623;44.738;37.804;2023-10-08T02:48:23;2.28;118.99
75296;DHT22;64623;44.738;37.804;2023-10-08T02:49:26;2.27;118.99
75296;DHT22;64623;44.738;37.804;2023-10-08T02:50:32;2.27;118.99
75296;DHT22;64623;44.738;37.804;2023-10-08T02:51:35;2.28;118.99
75296;DHT22;64623;44.738;37.804;2023-10-08T02:52:38;2.27;118.99
75296;DHT22;64623;44.738;37.804;2023-10-08T02:53:41;2.26;118.99
75296;DHT22;64623;44.738;37.804;2023-10-08T02:54:46;2.24;118.99
75296;DHT22;64623;44.738;37.804;2023-10-08T02:55:49;2.25;118.99
75296;DHT22;64623;44.738;37.804;2023-10-08T02:56:53;2.25;118.99
75296;DHT22;64623;44.738;37.804;2023-10-08T02:58:01;2.24;118.99
75296;DHT22;64623;44.738;37.804;2023-10-08T02:59:06;2.23;118.99
75296;DHT22;64623;44.738;37.804;2023-10-08T03:00:12;2.24;118.99
75296;DHT22;64623;44.738;37.804;2023-10-08T03:01:16;2.23;118.99
75296;DHT22;64623;44.738;37.804;2023-10-08T03:02:19;2.25;118.99
75296;DHT22;64623;44.738;37.804;2023-10-08T03:03:22;2.24;118.99
75296;DHT22;64623;44.738;37.804;2023-10-08T03:04:27;2.24;118.99
75296;DHT22;64623;44.738;37.804;2023-10-08T03:05:31;2.24;118.99
75296;DHT22;64623;44.738;37.804;2023-10-08T03:06:38;2.24;118.99
75296;DHT22;64623;44.738;37.804;2023-10-08T03:07:41;2.25;118.99
75296;DHT22;64623;44.738;37.804;2023-10-08T03:08:44;2.23;118.99
75296;DHT22;64623;44.738;37.804;2023-10-08T03:09:51;2.32;118.99
75296;DHT22;64623;44.738;37.804;2023-10-08T03:11:06;2.35;118.99
75296;DHT22;64623;44.738;37.804;2023-10-08T03:12:09;2.34;118.99
75296;DHT22;64623;44.738;37.804;2023-10-08T03:13:12;2.34;118.99
75296;DHT22;64623;44.738;37.804;2023-10-08T03:14:18;2.31;118.99
75296;DHT22;64623;44.738;37.804;2023-10-08T03:15:25;2.32;118.99
75296;DHT22;64623;44.738;37.804;2023-10-08T03:16:31;2.34;118.99
75296;DHT22;64623;44.738;37.804;2023-10-08T03:17:37;2.34;118.99
75296;DHT22;64623;44.738;37.804;2023-10-08T03:18:50;2.35;118.99
75296;DHT22;64623;44.738;37.804;2023-10-08T03:19:54;2.35;118.99
75296;DHT22;64623;44.738;37.804;2023-10-08T03:21:05;2.32;118.99
75296;DHT22;64623;44.738;37.804;2023-10-08T03:22:25;2.31;118.99
75296;DHT22;64623;44.738;37.804;2023-10-08T03:23:35;2.22;118.99
75296;DHT22;64623;44.738;37.804;2023-10-08T03:24:46;2.21;118.99
75296;DHT22;64623;44.738;37.804;2023-10-08T03:25:55;2.20;118.99
75296;DHT22;64623;44.738;37.804;2023-10-08T03:27:13;2.22;118.99
75296;DHT22;64623;44.738;37.804;2023-10-08T03:28:22;2.20;118.99
75296;DHT22;64623;44.738;37.804;2023-10-08T03:29:27;2.17;118.99
75296;DHT22;64623;44.738;37.804;2023-10-08T03:30:33;2.20;118.99
75296;DHT22;64623;44.738;37.804;2023-10-08T03:31:52;2.19;118.99
75296;DHT22;64623;44.738;37.804;2023-10-08T03:32:57;2.20;118.99
75296;DHT22;64623;44.738;37.804;2023-10-08T03:34:01;2.20;118.99
75296;DHT22;64623;44.738;37.804;2023-10-08T03:35:04;2.21;118.99
75296;DHT22;64623;44.738;37.804;2023-10-08T03:36:07;2.21;118.99
75296;DHT22;64623;44.738;37.804;2023-10-08T03:37:23;2.16;118.99
75296;DHT22;64623;44.738;37.804;2023-10-08T03:38:48;2.16;118.99
75296;DHT22;64623;44.738;37.804;2023-10-08T03:39:55;2.19;118.99
75296;DHT22;64623;44.738;37.804;2023-10-08T03:41:10;2.17;118.99
75296;DHT22;64623;44.738;37.804;2023-10-08T03:42:23;2.19;118.99
75296;DHT22;64623;44.738;37.804;2023-10-08T03:43:26;2.17;118.99
75296;DHT22;64623;44.738;37.804;2023-10-08T03:44:37;2.17;118.99
75296;DHT22;64623;44.738;37.804;2023-10-08T03:45:40;2.17;118.99
75296;DHT22;64623;44.738;37.804;2023-10-08T03:47:18;2.19;118.99
75296;DHT22;64623;44.738;37.804;2023-10-08T03:48:21;2.20;118.99
75296;DHT22;64623;44.738;37.804;2023-10-08T03:49:25;2.20;118.99
75296;DHT22;64623;44.738;37.804;2023-10-08T03:50:27;2.22;118.99
75296;DHT22;64623;44.738;37.804;2023-10-08T03:51:35;2.20;118.99
75296;DHT22;64623;44.738;37.804;2023-10-08T03:52:41;2.20;118.99
75296;DHT22;64623;44.738;37.804;2023-10-08T03:53:47;2.20;118.99
75296;DHT22;64623;44.738;37.804;2023-10-08T03:55:18;2.22;118.99
75296;DHT22;64623;44.738;37.804;2023-10-08T03:56:20;2.23;118.99
75296;DHT22;64623;44.738;37.804;2023-10-08T03:57:23;2.23;118.99
75296;DHT22;64623;44.738;37.804;2023-10-08T03:58:44;2.24;118.99
75296;DHT22;64623;44.738;37.804;2023-10-08T03:59:49;2.23;118.99
75296;DHT22;64623;44.738;37.804;2023-10-08T04:00:57;2.26;118.99
75296;DHT22;64623;44.738;37.804;2023-10-08T04:02:13;2.27;118.99
75296;DHT22;64623;44.738;37.804;2023-10-08T04:03:17;2.26;118.99
75296;DHT22;64623;44.738;37.804;2023-10-08T04:04:43;2.26;118.99
75296;DHT22;64623;44.738;37.804;2023-10-08T04:05:59;2.27;118.99
75296;DHT22;64623;44.738;37.804;2023-10-08T04:07:18;2.29;118.99
75296;DHT22;64623;44.738;37.804;2023-10-08T04:08:47;2.29;118.99
75296;DHT22;64623;44.738;37.804;2023-10-08T04:10:04;2.31;118.99
75296;DHT22;64623;44.738;37.804;2023-10-08T04:11:13;2.35;118.99
75296;DHT22;64623;44.738;37.804;2023-10-08T04:12:35;2.34;118.99
75296;DHT22;64623;44.738;37.804;2023-10-08T04:13:38;2.35;118.99
75296;DHT22;64623;44.738;37.804;2023-10-08T04:14:47;2.36;118.99
75296;DHT22;64623;44.738;37.804;2023-10-08T04:15:50;2.37;118.99
75296;DHT22;64623;44.738;37.804;2023-10-08T04:16:53;2.36;118.99
75296;DHT22;64623;44.738;37.804;2023-10-08T04:17:56;2.38;118.99
75296;DHT22;64623;44.738;37.804;2023-10-08T04:19:00;2.37;118.99
75296;DHT22;64623;44.738;37.804;2023-10-08T04:20:07;2.39;118.99
75296;DHT22;64623;44.738;37.804;2023-10-08T04:21:30;2.40;118.99
75296;DHT22;64623;44.738;37.804;2023-10-08T04:22:36;2.41;118.99
75296;DHT22;64623;44.738;37.804;2023-10-08T04:23:40;2.42;118.99
75296;DHT22;64623;44.738;37.804;2023-10-08T04:24:43;2.44;118.99
75296;DHT22;64623;44.738;37.804;2023-10-08T04:25:47;2.44;118.99
75296;DHT22;64623;44.738;37.804;2023-10-08T04:26:58;2.47;118.99
75296;DHT22;64623;44.738;37.804;2023-10-08T04:28:01;2.47;118.99
75296;DHT22;64623;44.738;37.804;2023-10-08T04:29:04;2.47;118.99
75296;DHT22;64623;44.738;37.804;2023-10-08T04:30:09;2.46;118.99
75296;DHT22;64623;44.738;37.804;2023-10-08T04:31:12;2.46;118.99
75296;DHT22;64623;44.738;37.804;2023-10-08T04:32:18;2.46;118.99
75296;DHT22;64623;44.738;37.804;2023-10-08T04:33:28;2.47;118.99
75296;DHT22;64623;44.738;37.804;2023-10-08T04:34:36;2.49;118.99
75296;DHT22;64623;44.738;37.804;2023-10-08T04:35:40;2.47;118.99
75296;DHT22;64623;44.738;37.804;2023-10-08T04:36:57;2.50;118.99
75296;DHT22;64623;44.738;37.804;2023-10-08T04:38:04;2.50;118.99
75296;DHT22;64623;44.738;37.804;2023-10-08T04:39:12;2.51;118.99
75296;DHT22;64623;44.738;37.804;2023-10-08T04:40:17;2.53;118.99
75296;DHT22;64623;44.738;37.804;2023-10-08T04:41:21;2.50;118.99
75296;DHT22;64623;44.738;37.804;2023-10-08T04:42:30;2.51;118.99
75296;DHT22;64623;44.738;37.804;2023-10-08T04:43:33;2.50;118.99
75296;DHT22;64623;44.738;37.804;2023-10-08T04:44:40;2.50;118.99
75296;DHT22;64623;44.738;37.804;2023-10-08T04:45:43;2.49;118.99
75296;DHT22;64623;44.738;37.804;2023-10-08T04:46:46;2.51;118.99
75296;DHT22;64623;44.738;37.804;2023-10-08T04:47:49;2.51;118.99
75296;DHT22;64623;44.738;37.804;2023-10-08T04:48:52;2.52;118.99
75296;DHT22;64623;44.738;37.804;2023-10-08T04:49:55;2.52;118.99
75296;DHT22;64623;44.738;37.804;2023-10-08T04:50:59;2.52;118.99
75296;DHT22;64623;44.738;37.804;2023-10-08T04:52:06;2.52;118.99
75296;DHT22;64623;44.738;37.804;2023-10-08T04:53:21;2.54;118.99
75296;DHT22;64623;44.738;37.804;2023-10-08T04:54:33;2.56;118.99
75296;DHT22;64623;44.738;37.804;2023-10-08T04:55:42;2.55;118.99
75296;DHT22;64623;44.738;37.804;2023-10-08T04:56:50;2.55;118.99
75296;DHT22;64623;44.738;37.804;2023-10-08T04:57:55;2.57;118.99
75296;DHT22;64623;44.738;37.804;2023-10-08T04:58:59;2.57;118.99
75296;DHT22;64623;44.738;37.804;2023-10-08T05:00:02;2.57;118.99
75296;DHT22;64623;44.738;37.804;2023-10-08T05:01:11;2.60;118.99
75296;DHT22;64623;44.738;37.804;2023-10-08T05:02:20;2.64;118.99
75296;DHT22;64623;44.738;37.804;2023-10-08T05:03:23;2.65;118.99
75296;DHT22;64623;44.738;37.804;2023-10-08T05:04:31;2.68;118.99
75296;DHT22;64623;44.738;37.804;2023-10-08T05:05:49;2.71;118.99
75296;DHT22;64623;44.738;37.804;2023-10-08T05:07:09;2.71;118.99
75296;DHT22;64623;44.738;37.804;2023-10-08T05:08:42;2.73;118.99
75296;DHT22;64623;44.738;37.804;2023-10-08T05:10:00;2.74;118.99
75296;DHT22;64623;44.738;37.804;2023-10-08T05:11:06;2.80;118.99
75296;DHT22;64623;44.738;37.804;2023-10-08T05:12:27;2.81;118.99
75296;DHT22;64623;44.738;37.804;2023-10-08T05:13:35;2.84;118.99
75296;DHT22;64623;44.738;37.804;2023-10-08T05:14:47;2.86;118.99
75296;DHT22;64623;44.738;37.804;2023-10-08T05:16:10;2.86;118.99
75296;DHT22;64623;44.738;37.804;2023-10-08T05:17:36;2.89;118.99
75296;DHT22;64623;44.738;37.804;2023-10-08T05:18:59;2.93;118.99
75296;DHT22;64623;44.738;37.804;2023-10-08T05:20:27;2.97;118.99
75296;DHT22;64623;44.738;37.804;2023-10-08T05:21:47;2.95;118.99
75296;DHT22;64623;44.738;37.804;2023-10-08T05:23:12;2.95;118.99
75296;DHT22;64623;44.738;37.804;2023-10-08T05:24:26;2.98;118.99
75296;DHT22;64623;44.738;37.804;2023-10-08T05:25:43;3.00;118.99
75296;DHT22;64623;44.738;37.804;2023-10-08T05:27:05;3.02;118.99
75296;DHT22;64623;44.738;37.804;2023-10-08T05:28:28;3.04;118.99
75296;DHT22;64623;44.738;37.804;2023-10-08T05:29:33;3.03;118.99
75296;DHT22;64623;44.738;37.804;2023-10-08T05:31:08;3.05;118.99
75296;DHT22;64623;44.738;37.804;2023-10-08T05:32:17;3.03;118.99
75296;DHT22;64623;44.738;37.804;2023-10-08T05:33:41;3.02;118.99
75296;DHT22;64623;44.738;37.804;2023-10-08T05:35:23;3.06;118.99
75296;DHT22;64623;44.738;37.804;2023-10-08T05:37:01;3.11;118.99
75296;DHT22;64623;44.738;37.804;2023-10-08T05:38:10;3.13;118.99
75296;DHT22;64623;44.738;37.804;2023-10-08T05:39:19;3.14;118.99
75296;DHT22;64623;44.738;37.804;2023-10-08T05:40:42;3.15;118.99
75296;DHT22;64623;44.738;37.804;2023-10-08T05:42:03;3.20;118.99
75296;DHT22;64623;44.738;37.804;2023-10-08T05:43:18;3.25;118.99
75296;DHT22;64623;44.738;37.804;2023-10-08T05:44:41;3.28;118.99
75296;DHT22;64623;44.738;37.804;2023-10-08T05:45:48;3.26;118.99
75296;DHT22;64623;44.738;37.804;2023-10-08T05:47:14;3.31;118.99
75296;DHT22;64623;44.738;37.804;2023-10-08T05:48:35;3.31;118.99
75296;DHT22;64623;44.738;37.804;2023-10-08T05:49:50;3.31;118.99
75296;DHT22;64623;44.738;37.804;2023-10-08T05:51:25;3.33;118.99
75296;DHT22;64623;44.738;37.804;2023-10-08T05:52:47;3.44;118.99
75296;DHT22;64623;44.738;37.804;2023-10-08T05:53:55;3.55;118.99
75296;DHT22;64623;44.738;37.804;2023-10-08T05:54:59;3.68;118.99
75296;DHT22;64623;44.738;37.804;2023-10-08T05:56:23;3.73;118.99
75296;DHT22;64623;44.738;37.804;2023-10-08T05:57:59;3.70;118.99
75296;DHT22;64623;44.738;37.804;2023-10-08T05:59:16;3.62;118.99
75296;DHT22;64623;44.738;37.804;2023-10-08T06:00:21;3.59;118.99
75296;DHT22;64623;44.738;37.804;2023-10-08T06:01:44;3.55;118.99
75296;DHT22;64623;44.738;37.804;2023-10-08T06:02:48;3.58;118.99
75296;DHT22;64623;44.738;37.804;2023-10-08T06:04:12;3.62;118.99
75296;DHT22;64623;44.738;37.804;2023-10-08T06:05:34;3.60;118.99
75296;DHT22;64623;44.738;37.804;2023-10-08T06:06:45;3.64;118.99
75296;DHT22;64623;44.738;37.804;2023-10-08T06:08:00;3.67;118.99
75296;DHT22;64623;44.738;37.804;2023-10-08T06:09:14;3.61;118.99
75296;DHT22;64623;44.738;37.804;2023-10-08T06:10:18;3.71;118.99
75296;DHT22;64623;44.738;37.804;2023-10-08T06:11:38;3.87;118.99
75296;DHT22;64623;44.738;37.804;2023-10-08T06:12:47;4.02;118.99
75296;DHT22;64623;44.738;37.804;2023-10-08T06:14:03;4.13;118.99
75296;DHT22;64623;44.738;37.804;2023-10-08T06:15:15;4.43;118.99
75296;DHT22;64623;44.738;37.804;2023-10-08T06:16:30;4.64;118.99
75296;DHT22;64623;44.738;37.804;2023-10-08T06:17:44;4.62;118.99
75296;DHT22;64623;44.738;37.804;2023-10-08T06:19:00;4.52;118.99
75296;DHT22;64623;44.738;37.804;2023-10-08T06:20:03;4.43;118.99
75296;DHT22;64623;44.738;37.804;2023-10-08T06:21:12;4.36;118.99
75296;DHT22;64623;44.738;37.804;2023-10-08T06:22:18;4.29;118.99
75296;DHT22;64623;44.738;37.804;2023-10-08T06:23:22;4.20;118.99
75296;DHT22;64623;44.738;37.804;2023-10-08T06:24:26;4.09;118.99
75296;DHT22;64623;44.738;37.804;2023-10-08T06:25:29;4.04;118.99
75296;DHT22;64623;44.738;37.804;2023-10-08T06:26:33;3.98;118.99
75296;DHT22;64623;44.738;37.804;2023-10-08T06:27:37;3.93;118.99
75296;DHT22;64623;44.738;37.804;2023-10-08T06:28:42;3.95;118.99
75296;DHT22;64623;44.738;37.804;2023-10-08T06:29:46;4.05;118.99
75296;DHT22;64623;44.738;37.804;2023-10-08T06:30:54;4.15;118.99
75296;DHT22;64623;44.738;37.804;2023-10-08T06:31:58;4.16;118.99
75296;DHT22;64623;44.738;37.804;2023-10-08T06:33:05;4.21;118.99
75296;DHT22;64623;44.738;37.804;2023-10-08T06:34:08;4.21;118.99
75296;DHT22;64623;44.738;37.804;2023-10-08T06:35:11;4.31;118.99
75296;DHT22;64623;44.738;37.804;2023-10-08T06:36:20;4.28;118.99
75296;DHT22;64623;44.738;37.804;2023-10-08T06:37:31;4.18;118.99
75296;DHT22;64623;44.738;37.804;2023-10-08T06:38:36;4.04;118.99
75296;DHT22;64623;44.738;37.804;2023-10-08T06:39:41;3.98;118.99
75296;DHT22;64623;44.738;37.804;2023-10-08T06:40:53;3.89;118.99
75296;DHT22;64623;44.738;37.804;2023-10-08T06:41:55;3.86;118.99
75296;DHT22;64623;44.738;37.804;2023-10-08T06:43:05;3.83;118.99
75296;DHT22;64623;44.738;37.804;2023-10-08T06:44:40;3.90;118.99
75296;DHT22;64623;44.738;37.804;2023-10-08T06:45:46;3.91;118.99
75296;DHT22;64623;44.738;37.804;2023-10-08T06:46:49;3.98;118.99
75296;DHT22;64623;44.738;37.804;2023-10-08T06:47:55;4.08;118.99
75296;DHT22;64623;44.738;37.804;2023-10-08T06:49:01;4.15;118.99
75296;DHT22;64623;44.738;37.804;2023-10-08T06:50:06;4.17;118.99
75296;DHT22;64623;44.738;37.804;2023-10-08T06:51:17;4.15;118.99
75296;DHT22;64623;44.738;37.804;2023-10-08T06:52:20;4.20;118.99
75296;DHT22;64623;44.738;37.804;2023-10-08T06:53:24;4.28;118.99
75296;DHT22;64623;44.738;37.804;2023-10-08T06:54:27;4.37;118.99
75296;DHT22;64623;44.738;37.804;2023-10-08T06:55:34;4.37;118.99
75296;DHT22;64623;44.738;37.804;2023-10-08T06:56:40;4.43;118.99
75296;DHT22;64623;44.738;37.804;2023-10-08T06:57:49;4.53;118.99
75296;DHT22;64623;44.738;37.804;2023-10-08T06:58:52;4.52;118.99
75296;DHT22;64623;44.738;37.804;2023-10-08T06:59:56;4.60;118.99
75296;DHT22;64623;44.738;37.804;2023-10-08T07:01:02;4.52;118.99
75296;DHT22;64623;44.738;37.804;2023-10-08T07:02:08;4.49;118.99
75296;DHT22;64623;44.738;37.804;2023-10-08T07:03:13;4.56;118.99
75296;DHT22;64623;44.738;37.804;2023-10-08T07:04:20;4.57;118.99
75296;DHT22;64623;44.738;37.804;2023-10-08T07:05:24;4.43;118.99